Time;durP1;ratioP1;P1;durP2;ratioP2;P2;SDS_P1;SDS_P2;PMS_P1;PMS_P2;Temp;Humidity;BMP_temperature;BMP_pressure;BME280_temperature;BME280_humidity;BME280_pressure;Samples;Min_cycle;Max_cycle;Signal;HPM_P1;HPM_P2
2023/11/27 00:21:42;;;;;;;24.92;23.13;;;;;;;0.17;100.00;100587.69;5037682;28;20060;-92
2023/11/27 00:27:52;;;;;;;22.55;20.95;;;;;;;-1.28;100.00;100595.47;5026895;28;20041;-92
2023/11/27 00:30:53;;;;;;;25.10;23.30;;;;;;;-1.09;100.00;100599.91;4988590;28;20070;-93
2023/11/27 00:43:15;;;;;;;25.52;23.73;;;;;;;-0.67;100.00;100587.50;5013254;28;20062;-91
2023/11/27 01:03:11;;;;;;;24.35;22.48;;;;;;;-0.09;100.00;100600.56;4928654;29;20135;-92
2023/11/27 01:09:23;;;;;;;29.42;27.48;;;;;;;-1.27;100.00;100612.75;4940910;28;20046;-91
2023/11/27 01:12:10;;;;;;;28.73;26.73;;;;;;;-0.87;100.00;100615.34;4972244;28;20142;-90
2023/11/27 01:18:47;;;;;;;25.85;23.98;;;;;;;-1.37;100.00;100628.34;4953012;28;20142;-90
2023/11/27 01:26:09;;;;;;;30.30;28.20;;;;;;;-0.58;100.00;100628.41;4940682;28;20046;-91
2023/11/27 01:28:50;;;;;;;28.00;26.00;;;;;;;0.17;100.00;100624.28;4998014;28;20136;-90
2023/11/27 01:38:20;;;;;;;28.85;26.88;;;;;;;-1.13;100.00;100654.09;5051951;28;20053;-91
2023/11/27 01:44:56;;;;;;;27.52;25.63;;;;;;;-1.28;100.00;100653.63;4981533;28;20055;-90
2023/11/27 01:55:11;;;;;;;22.85;21.25;;;;;;;-1.76;100.00;100662.00;4976680;28;20077;-91
2023/11/27 02:01:36;;;;;;;;;;;;;;;-1.18;100.00;100664.09;5016838;28;20538;-91
2023/11/27 02:11:43;;;;;;;26.40;24.50;;;;;;;-1.41;100.00;100659.06;4944000;29;20058;-89
2023/11/27 02:18:25;;;;;;;22.60;21.00;;;;;;;-1.73;100.00;100684.38;4863052;29;20126;-91
2023/11/27 02:21:42;;;;;;;23.85;22.15;;;;;;;-1.31;100.00;100673.91;4880130;29;20056;-92
2023/11/27 02:38:36;;;;;;;;;;;;;;;;;;;;;
2023/11/27 03:01:03;;;;;;;30.10;28.20;;;;;;;-1.86;100.00;100721.84;5021476;28;20053;-91
2023/11/27 03:03:46;;;;;;;34.97;32.75;;;;;;;-2.04;100.00;100707.72;5041676;28;20500;-90
2023/11/27 03:16:11;;;;;;;30.75;28.83;;;;;;;-2.07;100.00;100737.41;5011436;28;20518;-92
2023/11/27 03:19:33;;;;;;;27.42;25.52;;;;;;;-1.44;100.00;100731.44;5054130;28;20067;-91
2023/11/27 03:22:43;;;;;;;30.40;28.40;;;;;;;-1.06;100.00;100733.44;5023415;28;20127;-91
2023/11/27 03:36:03;;;;;;;26.77;25.05;;;;;;;-2.41;100.00;100752.28;5035710;28;20057;-91
2023/11/27 03:42:45;;;;;;;27.23;25.42;;;;;;;-1.32;100.00;100760.88;4988364;28;20077;-92
2023/11/27 03:55:28;;;;;;;29.58;27.67;;;;;;;-2.28;100.00;100772.97;4947506;28;20051;-90
2023/11/27 03:58:47;;;;;;;25.70;24.00;;;;;;;-2.27;100.00;100761.59;4957907;28;20056;-90
2023/11/27 04:05:23;;;;;;;24.60;23.00;;;;;;;-2.28;100.00;100778.16;5051619;28;20063;-92
2023/11/27 04:08:42;;;;;;;30.83;28.88;;;;;;;-2.32;100.00;100792.38;5043083;28;20045;-90
2023/11/27 04:12:10;;;;;;;27.90;26.20;;;;;;;-1.62;100.00;100783.28;5050705;28;20568;-91
2023/11/27 04:32:12;;;;;;;32.35;30.40;;;;;;;-1.93;100.00;100819.63;5002684;28;20050;-90
2023/11/27 04:49:17;;;;;;;;;;;;;;;;;;;;;
2023/11/27 04:55:54;;;;;;;37.42;35.25;;;;;;;-2.40;100.00;100850.19;4954922;28;20064;-90
2023/11/27 05:01:56;;;;;;;27.48;25.88;;;;;;;-2.55;100.00;100854.81;4888306;29;20056;-90
2023/11/27 05:05:06;;;;;;;27.92;26.27;;;;;;;-2.67;100.00;100865.31;4897359;29;20085;-89
2023/11/27 05:14:46;;;;;;;26.00;24.50;;;;;;;-2.72;100.00;100883.03;4946553;28;20241;-92
2023/11/27 05:21:38;;;;;;;29.13;27.45;;;;;;;-2.78;100.00;100879.16;4895198;29;20052;-89
2023/11/27 05:24:59;;;;;;;25.77;24.38;;;;;;;-2.13;100.00;100886.25;4895293;29;20048;-89
2023/11/27 05:48:31;;;;;;;26.70;24.90;;;;;;;-2.48;100.00;100912.41;4962473;28;20056;-90
2023/11/27 06:02:00;;;;;;;;;;;;;;;;;;;;;
2023/11/27 06:36:36;;;;;;;30.13;28.42;;;;;;;-0.38;100.00;100947.69;4802741;29;20110;-93
2023/11/27 07:14:48;;;;;;;;;;;;;;;;;;;;;
2023/11/27 07:17:32;;;;;;;24.23;22.73;;;;;;;1.28;100.00;100957.53;4823268;29;20070;-92
2023/11/27 07:30:32;;;;;;;25.80;24.30;;;;;;;1.52;100.00;100951.84;4937206;29;20066;-91
2023/11/27 07:33:56;;;;;;;;;;;;;;;1.83;100.00;100955.06;4928462;29;20063;-92
2023/11/27 07:50:33;;;;;;;22.67;21.30;;;;;;;1.50;100.00;100952.97;4807138;29;20581;-92
2023/11/27 07:57:05;;;;;;;24.02;22.60;;;;;;;2.40;100.00;100962.81;4980845;28;20046;-91
2023/11/27 08:00:55;;;;;;;;;;;;;;;;;;;;;
2023/11/27 08:24:45;;;;;;;21.73;20.50;;;;;;;3.50;100.00;100958.22;5044044;28;20125;-92
2023/11/27 08:35:06;;;;;;;24.20;22.80;;;;;;;3.08;100.00;100988.59;4917020;28;20453;-92
2023/11/27 08:59:06;;;;;;;33.80;32.10;;;;;;;4.12;100.00;100979.97;4911250;29;20122;-92
2023/11/27 09:08:40;;;;;;;31.85;30.15;;;;;;;3.53;100.00;100986.81;4942317;27;20522;-94
2023/11/27 09:15:49;;;;;;;45.45;43.05;;;;;;;3.46;100.00;100991.03;4945035;28;20114;-93
2023/11/27 09:31:26;;;;;;;31.70;30.00;;;;;;;3.04;100.00;100965.44;4978834;28;20061;-92
2023/11/27 09:34:34;;;;;;;32.63;30.92;;;;;;;3.10;100.00;100981.41;4973579;28;20143;-91
2023/11/27 10:03:24;;;;;;;34.33;32.42;;;;;;;4.73;100.00;100955.16;4782707;29;20055;-93
2023/11/27 10:06:51;;;;;;;32.55;30.67;;;;;;;5.16;100.00;100961.13;4829933;29;20061;-94
2023/11/27 10:16:49;;;;;;;27.30;25.80;;;;;;;4.60;100.00;100949.56;4852099;29;20054;-92
2023/11/27 10:20:18;;;;;;;;;;;;;;;;;;;;;
2023/11/27 10:43:25;;;;;;;26.88;25.38;;;;;;;4.28;100.00;100930.06;4900535;29;20059;-93
2023/11/27 11:10:25;;;;;;;35.10;33.30;;;;;;;5.79;100.00;100909.50;5036526;28;20063;-92
2023/11/27 11:23:47;;;;;;;33.88;32.17;;;;;;;5.29;100.00;100923.75;5034342;28;20057;-93
2023/11/27 11:44:18;;;;;;;41.17;39.10;;;;;;;6.21;100.00;100926.84;4967128;28;20113;-93
2023/11/27 11:47:34;;;;;;;42.45;40.45;;;;;;;6.21;100.00;100904.91;4981761;28;20106;-94
2023/11/27 12:01:00;;;;;;;;;;;;;;;;;;;;;
2023/11/27 12:13:47;;;;;;;34.58;32.78;;;;;;;7.51;100.00;100893.34;5037839;28;20044;-94
2023/11/27 12:24:11;;;;;;;32.30;30.60;;;;;;;6.72;100.00;100902.59;4971745;28;20058;-94
2023/11/27 12:36:35;;;;;;;25.45;23.95;;;;;;;9.09;100.00;100902.47;4962717;28;20310;-95
2023/11/27 12:43:01;;;;;;;24.67;23.20;;;;;;;6.05;100.00;100890.81;4938946;28;20065;-95
2023/11/27 12:45:57;;;;;;;29.40;27.80;;;;;;;9.31;100.00;100880.22;5023255;28;20139;-93
2023/11/27 12:52:18;;;;;;;29.30;27.70;;;;;;;6.82;100.00;100888.19;5040499;28;20102;-93
2023/11/27 13:03:14;;;;;;;27.50;25.85;;;;;;;7.55;100.00;100894.63;4985128;28;20060;-94
2023/11/27 13:10:09;;;;;;;;;;;;;;;;;;;;;
2023/11/27 13:54:07;;;;;;;30.70;29.30;;;;;;;2.60;100.00;100899.75;4903699;29;20066;-94
2023/11/27 14:00:42;;;;;;;42.35;40.45;;;;;;;1.94;100.00;100883.34;5036197;28;20168;-94
2023/11/27 14:50:28;;;;;;;25.00;23.70;;;;;;;1.23;100.00;100901.34;5058002;27;20429;-78
2023/11/27 14:52:57;;;;;;;24.15;22.85;;;;;;;1.06;100.00;100906.34;5052786;28;20048;-78
2023/11/27 14:55:24;;;;;;;25.92;24.42;;;;;;;1.12;100.00;100912.78;5053054;28;20268;-77
2023/11/27 14:57:51;;;;;;;27.70;26.20;;;;;;;0.93;100.00;100913.63;5048723;28;20064;-78
2023/11/27 15:00:26;;;;;;;26.98;25.58;;;;;;;0.85;100.00;100908.28;5054346;28;20714;-77
2023/11/27 15:02:53;;;;;;;30.70;29.10;;;;;;;1.01;100.00;100911.16;5059098;28;20063;-78
2023/11/27 15:05:20;;;;;;;27.92;26.30;;;;;;;0.60;100.00;100899.16;5149482;22;20056;-75
2023/11/27 15:07:58;;;;;;;27.15;25.58;;;;;;;0.85;100.00;100908.28;5081270;28;20054;-74
2023/11/27 15:10:27;;;;;;;26.35;24.85;;;;;;;0.79;100.00;100916.69;5075309;28;20052;-81
2023/11/27 15:12:56;;;;;;;26.17;24.67;;;;;;;0.82;100.00;100903.34;5071473;28;20044;-82
2023/11/27 15:15:26;;;;;;;29.85;28.25;;;;;;;0.68;100.00;100902.75;5079773;28;20093;-81
2023/11/27 15:17:53;;;;;;;28.98;27.48;;;;;;;0.88;100.00;100900.97;5080958;28;20890;-82
2023/11/27 15:20:23;;;;;;;29.77;28.08;;;;;;;1.36;100.00;100901.88;5077938;28;20097;-81
2023/11/27 15:22:52;;;;;;;26.67;25.17;;;;;;;1.03;100.00;100901.38;5078557;28;20048;-81
2023/11/27 15:25:23;;;;;;;52.42;50.00;;;;;;;1.02;100.00;100904.13;5077699;28;20079;-83
2023/11/27 15:27:51;;;;;;;25.48;24.08;;;;;;;0.93;100.00;100902.34;5082831;28;20052;-82
2023/11/27 15:30:19;;;;;;;26.17;24.67;;;;;;;1.44;100.00;100907.22;5091882;28;20080;-81
2023/11/27 15:32:53;;;;;;;25.30;23.80;;;;;;;1.13;100.00;100896.13;5080908;28;20052;-82
2023/11/27 15:35:24;;;;;;;23.40;22.00;;;;;;;0.77;100.00;100911.56;5074087;28;20556;-82
2023/11/27 15:37:52;;;;;;;27.77;26.23;;;;;;;0.89;100.00;100905.25;5080560;28;20052;-82
2023/11/27 15:40:26;;;;;;;23.75;22.35;;;;;;;0.89;100.00;100913.09;5074607;28;21827;-81
2023/11/27 15:42:54;;;;;;;24.98;23.58;;;;;;;0.77;100.00;100895.88;5075886;28;20060;-81
2023/11/27 15:45:21;;;;;;;26.00;24.50;;;;;;;0.79;100.00;100898.38;5069019;28;20048;-82
2023/11/27 15:47:48;;;;;;;24.67;23.38;;;;;;;0.81;100.00;100894.63;5068204;28;20076;-81
2023/11/27 15:50:15;;;;;;;22.33;21.02;;;;;;;0.69;100.00;100899.16;5070824;28;20986;-75
2023/11/27 15:52:45;;;;;;;24.42;22.92;;;;;;;0.79;100.00;100885.31;5057371;28;20498;-75
2023/11/27 15:55:12;;;;;;;28.50;26.80;;;;;;;0.71;100.00;100880.75;5059031;28;20044;-75
2023/11/27 15:57:43;;;;;;;26.90;25.20;;;;;;;0.48;100.00;100890.63;5062338;28;20118;-75
2023/11/27 16:00:14;;;;;;;27.98;26.38;;;;;;;0.30;100.00;100893.06;5068029;28;20049;-75
2023/11/27 16:02:41;;;;;;;23.90;22.50;;;;;;;0.53;100.00;100891.06;5069174;28;20437;-75
2023/11/27 16:05:09;;;;;;;23.83;22.40;;;;;;;0.34;100.00;100891.88;5069454;28;20069;-75
2023/11/27 16:07:47;;;;;;;25.85;23.80;;;;;;;0.31;100.00;100875.63;5062175;28;20135;-75
2023/11/27 16:10:14;;;;;;;24.70;23.30;;;;;;;0.16;100.00;100888.25;5057331;28;20441;-75
2023/11/27 16:12:45;;;;;;;26.27;24.77;;;;;;;0.17;100.00;100882.88;5053592;28;20092;-75
2023/11/27 16:15:15;;;;;;;26.23;24.52;;;;;;;0.10;100.00;100870.50;5065123;28;20051;-81
2023/11/27 16:17:43;;;;;;;25.42;23.92;;;;;;;-0.05;100.00;100877.88;5060587;28;20139;-82
2023/11/27 16:20:18;;;;;;;28.52;26.48;;;;;;;0.08;100.00;100870.63;5064310;28;20049;-75
2023/11/27 16:22:45;;;;;;;27.77;25.88;;;;;;;0.05;100.00;100863.06;5062459;28;20041;-75
2023/11/27 16:25:16;;;;;;;24.63;23.10;;;;;;;-0.09;100.00;100863.44;5059172;28;20600;-75
2023/11/27 16:27:48;;;;;;;34.88;31.95;;;;;;;-0.14;100.00;100863.84;5059025;28;20053;-74
2023/11/27 16:30:20;;;;;;;;;;;;;;;0.16;100.00;100870.78;5069095;28;20056;-80
2023/11/27 16:33:15;;;;;;;20.90;19.60;;;;;;;0.35;100.00;100863.94;5065303;28;19928;-81
2023/11/27 16:35:41;;;;;;;22.33;20.92;;;;;;;0.22;100.00;100867.63;5064940;28;20533;-81
2023/11/27 16:38:24;;;;;;;22.55;21.15;;;;;;;0.19;100.00;100864.47;5071042;28;20044;-82
2023/11/27 16:40:51;;;;;;;22.95;21.55;;;;;;;-0.06;100.00;100871.00;5061569;28;20051;-81
2023/11/27 16:43:19;;;;;;;25.83;24.20;;;;;;;0.03;100.00;100867.59;5061619;28;20060;-81
2023/11/27 16:45:47;;;;;;;27.35;25.65;;;;;;;-0.41;100.00;100868.81;5065230;28;20053;-82
2023/11/27 16:48:14;;;;;;;25.05;23.30;;;;;;;-0.21;100.00;100870.56;5057537;28;20095;-82
2023/11/27 16:50:41;;;;;;;24.10;22.50;;;;;;;-0.18;100.00;100867.69;5056003;28;20052;-81
2023/11/27 16:53:10;;;;;;;24.58;23.08;;;;;;;-0.29;100.00;100871.22;5059251;28;20049;-81
2023/11/27 16:55:37;;;;;;;25.42;23.42;;;;;;;-0.44;100.00;100869.91;5059333;28;20053;-82
2023/11/27 16:58:05;;;;;;;23.70;22.20;;;;;;;-0.32;100.00;100878.47;5057239;28;20057;-80
2023/11/27 17:00:35;;;;;;;25.25;23.27;;;;;;;-0.35;100.00;100868.31;5063599;28;20048;-81
2023/11/27 17:03:04;;;;;;;26.30;24.45;;;;;;;-0.58;100.00;100868.47;5064585;28;20071;-81
2023/11/27 17:05:32;;;;;;;30.48;28.05;;;;;;;-0.69;100.00;100871.16;5059717;28;20695;-81
2023/11/27 17:08:09;;;;;;;34.17;30.65;;;;;;;-0.80;100.00;100866.84;5065784;28;20052;-74
2023/11/27 17:10:39;;;;;;;28.55;26.45;;;;;;;-0.57;100.00;100861.47;5057741;28;20133;-74
2023/11/27 17:13:11;;;;;;;26.70;24.85;;;;;;;-0.48;100.00;100861.53;5065600;28;20098;-75
2023/11/27 17:15:42;;;;;;;22.20;20.90;;;;;;;-0.08;100.00;100855.47;5063471;28;20044;-75
2023/11/27 17:18:09;;;;;;;24.75;23.17;;;;;;;-0.19;100.00;100857.34;5060310;28;20052;-75
2023/11/27 17:20:40;;;;;;;26.85;25.23;;;;;;;-0.22;100.00;100855.84;5060727;28;20485;-74
2023/11/27 17:23:08;;;;;;;23.52;21.75;;;;;;;-0.08;100.00;100852.03;5054023;28;20060;-75
2023/11/27 17:25:35;;;;;;;24.08;22.58;;;;;;;-0.28;100.00;100846.75;5063763;28;20048;-76
2023/11/27 17:28:06;;;;;;;21.40;20.10;;;;;;;-0.70;100.00;100849.47;5065479;28;20045;-75
2023/11/27 17:30:34;;;;;;;22.00;20.40;;;;;;;-0.73;100.00;100849.72;5064039;28;20045;-74
2023/11/27 17:33:03;;;;;;;21.17;19.88;;;;;;;-0.76;100.00;100855.19;5060409;28;20491;-75
2023/11/27 17:35:30;;;;;;;20.77;19.38;;;;;;;-1.13;100.00;100856.59;5059017;28;20103;-75
2023/11/27 17:37:57;;;;;;;22.83;21.23;;;;;;;-1.28;100.00;100856.09;5060018;28;20049;-75
2023/11/27 17:40:27;;;;;;;21.15;19.95;;;;;;;-1.27;100.00;100842.94;5062811;28;20399;-75
2023/11/27 17:42:54;;;;;;;23.58;21.63;;;;;;;-1.29;100.00;100842.22;5053574;28;20045;-75
2023/11/27 17:45:27;;;;;;;20.05;18.80;;;;;;;-1.24;100.00;100845.28;5062959;28;20137;-75
2023/11/27 17:47:55;;;;;;;20.33;19.13;;;;;;;-1.27;100.00;100832.50;5060346;28;20110;-75
2023/11/27 17:50:23;;;;;;;18.65;17.42;;;;;;;-1.24;100.00;100834.03;5064187;28;20045;-75
2023/11/27 17:52:52;;;;;;;23.63;21.27;;;;;;;-1.23;100.00;100833.09;5062556;28;20135;-75
2023/11/27 17:55:20;;;;;;;20.52;19.35;;;;;;;-1.25;100.00;100832.38;5058991;28;20037;-75
2023/11/27 17:57:50;;;;;;;22.67;20.92;;;;;;;-1.56;100.00;100836.66;5064284;28;20575;-76
2023/11/27 18:00:19;;;;;;;25.58;23.65;;;;;;;-1.33;100.00;100835.63;5054233;28;20429;-75
2023/11/27 18:02:54;;;;;;;21.95;20.65;;;;;;;-1.22;100.00;100837.34;5050818;28;20057;-75
2023/11/27 18:05:28;;;;;;;22.83;21.40;;;;;;;-1.26;100.00;100828.13;5056649;28;20052;-75
2023/11/27 18:07:57;;;;;;;21.98;20.58;;;;;;;3.38;100.00;100829.81;5053767;28;20052;-71
2023/11/27 18:10:24;;;;;;;24.50;22.55;;;;;;;-0.53;100.00;100836.78;5056561;28;20045;-76
2023/11/27 18:12:52;;;;;;;28.42;26.30;;;;;;;-0.56;100.00;100823.97;5063704;28;20052;-76
2023/11/27 18:15:19;;;;;;;25.15;22.90;;;;;;;-0.52;100.00;100823.56;5057397;28;20041;-76
2023/11/27 18:17:47;;;;;;;28.17;26.08;;;;;;;-0.56;100.00;100822.19;5065648;28;20136;-76
2023/11/27 18:20:20;;;;;;;24.10;22.45;;;;;;;-0.41;100.00;100824.47;5058627;28;20084;-76
2023/11/27 18:22:48;;;;;;;25.25;23.65;;;;;;;-0.57;100.00;100825.78;5065298;28;20070;-76
2023/11/27 18:25:18;;;;;;;26.48;24.67;;;;;;;-0.57;100.00;100827.56;5058612;28;20045;-76
2023/11/27 18:27:45;;;;;;;23.98;22.33;;;;;;;-0.36;100.00;100819.69;5049031;28;20051;-76
2023/11/27 18:30:16;;;;;;;26.15;24.45;;;;;;;-0.27;100.00;100817.09;5063476;28;20520;-79
2023/11/27 18:32:44;;;;;;;27.30;25.48;;;;;;;-0.22;100.00;100821.91;5063587;28;20045;-76
2023/11/27 18:35:18;;;;;;;108.20;71.80;;;;;;;0.06;100.00;100816.88;5065219;28;20685;-76
2023/11/27 18:37:47;;;;;;;52.47;47.20;;;;;;;0.01;100.00;100829.53;5059726;28;20048;-76
2023/11/27 18:40:24;;;;;;;33.30;30.73;;;;;;;-0.11;100.00;100819.19;5056951;28;20040;-76
2023/11/27 18:42:56;;;;;;;25.73;23.92;;;;;;;-0.34;100.00;100818.56;5066651;28;20048;-76
2023/11/27 18:45:23;;;;;;;27.95;25.85;;;;;;;-0.22;100.00;100821.91;5078474;28;20056;-76
2023/11/27 18:47:50;;;;;;;24.65;22.92;;;;;;;-0.23;100.00;100820.25;5063648;28;21145;-76
2023/11/27 18:50:17;;;;;;;21.50;20.00;;;;;;;-0.47;100.00;100829.25;5056777;28;20041;-76
2023/11/27 18:52:55;;;;;;;27.00;23.23;;;;;;;-0.34;100.00;100812.53;5053009;28;20128;-76
2023/11/27 18:55:24;;;;;;;23.80;22.05;;;;;;;-0.47;100.00;100818.78;5067062;28;20056;-81
2023/11/27 18:57:51;;;;;;;19.30;18.10;;;;;;;-0.47;100.00;100824.03;5080188;28;20707;-82
2023/11/27 19:00:19;;;;;;;22.40;20.90;;;;;;;-0.16;100.00;100818.75;5066412;28;20037;-82
2023/11/27 19:02:48;;;;;;;23.67;21.00;;;;;;;-0.73;100.00;100818.44;5051968;28;20092;-82
2023/11/27 19:05:16;;;;;;;24.02;22.73;;;;;;;-0.51;100.00;100825.25;5064217;28;20049;-82
2023/11/27 19:07:42;;;;;;;26.48;24.98;;;;;;;-0.58;100.00;100821.50;5065882;28;20048;-81
2023/11/27 19:10:10;;;;;;;29.50;27.60;;;;;;;-0.66;100.00;100826.56;5066290;28;20047;-75
2023/11/27 19:12:41;;;;;;;31.42;29.70;;;;;;;-0.18;100.00;100819.84;5064900;28;20425;-75
2023/11/27 19:15:09;;;;;;;26.02;24.52;;;;;;;-0.38;100.00;100818.97;5065892;28;20420;-76
2023/11/27 19:17:35;;;;;;;28.38;26.83;;;;;;;-0.46;100.00;100811.78;5067014;28;20078;-80
2023/11/27 19:20:03;;;;;;;26.83;25.33;;;;;;;-0.57;100.00;100807.50;5062955;28;20051;-77
2023/11/27 19:22:30;;;;;;;29.42;27.23;;;;;;;-0.68;100.00;100799.75;5061573;28;20054;-76
2023/11/27 19:24:58;;;;;;;33.05;30.45;;;;;;;-0.73;100.00;100802.78;5069676;28;20052;-76
2023/11/27 19:27:37;;;;;;;25.70;24.02;;;;;;;-0.62;100.00;100796.63;5065035;28;20130;-76
2023/11/27 19:30:09;;;;;;;29.17;27.42;;;;;;;-0.73;100.00;100792.34;5065819;28;20041;-79
2023/11/27 19:32:36;;;;;;;28.40;26.83;;;;;;;-0.70;100.00;100792.09;5061056;28;20060;-79
2023/11/27 19:35:05;;;;;;;29.08;27.35;;;;;;;-0.72;100.00;100806.22;5069643;28;20445;-79
2023/11/27 19:37:33;;;;;;;27.88;26.17;;;;;;;-0.84;100.00;100786.38;5077955;28;20068;-80
2023/11/27 19:40:00;;;;;;;31.17;29.30;;;;;;;-0.54;100.00;100794.19;5067701;28;20050;-76
2023/11/27 19:42:30;;;;;;;26.75;25.40;;;;;;;-0.61;100.00;100787.84;5063336;28;20060;-79
2023/11/27 19:45:01;;;;;;;28.95;27.38;;;;;;;-0.49;100.00;100786.78;5063989;28;20052;-79
2023/11/27 19:47:29;;;;;;;30.23;28.52;;;;;;;-0.20;100.00;100782.63;5069609;28;20056;-76
2023/11/27 19:50:08;;;;;;;29.90;28.20;;;;;;;-0.21;100.00;100775.72;5068018;28;20177;-76
2023/11/27 19:52:36;;;;;;;33.92;31.83;;;;;;;0.58;100.00;100773.84;5057961;28;20044;-76
2023/11/27 19:55:03;;;;;;;32.63;30.52;;;;;;;0.91;100.00;100756.03;5063278;28;20102;-80
2023/11/27 19:57:30;;;;;;;34.10;31.80;;;;;;;1.25;100.00;100764.19;5066571;28;20056;-80
2023/11/27 19:59:56;;;;;;;35.20;33.15;;;;;;;1.33;100.00;100761.66;5068254;28;20145;-80
2023/11/27 20:02:23;;;;;;;32.60;30.63;;;;;;;1.34;100.00;100755.47;5068696;28;20429;-80
2023/11/27 20:04:52;;;;;;;31.23;29.52;;;;;;;1.58;100.00;100762.78;5066670;28;20417;-76
2023/11/27 20:07:19;;;;;;;27.58;25.85;;;;;;;1.77;100.00;100750.53;5065615;28;20044;-76
2023/11/27 20:09:46;;;;;;;28.42;26.73;;;;;;;1.84;100.00;100748.97;5064970;28;20407;-76
2023/11/27 20:12:12;;;;;;;29.67;27.73;;;;;;;1.88;100.00;100746.91;5062322;28;20048;-77
2023/11/27 20:14:39;;;;;;;30.30;27.63;;;;;;;1.78;100.00;100739.09;5070245;28;20051;-77
2023/11/27 20:17:06;;;;;;;29.23;27.42;;;;;;;1.88;100.00;100752.13;5062367;28;20071;-77
2023/11/27 20:19:44;;;;;;;25.67;24.08;;;;;;;1.75;100.00;100734.97;5070041;28;20051;-76
2023/11/27 20:22:13;;;;;;;26.95;25.45;;;;;;;2.03;100.00;100740.97;5070225;28;20901;-77
2023/11/27 20:24:40;;;;;;;28.10;26.40;;;;;;;1.83;100.00;100742.09;5068727;28;20098;-77
2023/11/27 20:27:06;;;;;;;29.80;28.00;;;;;;;1.74;100.00;100732.50;5059580;28;20082;-77
2023/11/27 20:29:35;;;;;;;25.98;24.38;;;;;;;1.80;100.00;100731.91;5070115;28;20052;-77
2023/11/27 20:32:02;;;;;;;28.17;26.38;;;;;;;1.85;100.00;100737.53;5067554;28;20155;-81
2023/11/27 20:34:29;;;;;;;32.92;30.95;;;;;;;1.80;100.00;100722.25;5068705;28;20623;-81
2023/11/27 20:36:56;;;;;;;31.23;29.33;;;;;;;1.82;100.00;100733.41;5061039;28;20052;-81
2023/11/27 20:39:25;;;;;;;37.88;35.67;;;;;;;1.87;100.00;100730.34;5069994;28;20041;-81
2023/11/27 20:41:56;;;;;;;32.25;30.33;;;;;;;1.92;100.00;100733.34;5067732;28;20056;-81
2023/11/27 20:44:22;;;;;;;31.63;29.63;;;;;;;1.81;100.00;100726.50;5059749;28;20083;-81
2023/11/27 20:46:51;;;;;;;30.20;28.30;;;;;;;1.94;100.00;100735.81;5069350;28;20047;-81
2023/11/27 20:49:18;;;;;;;33.00;31.10;;;;;;;1.93;100.00;100721.06;5068936;28;20086;-81
2023/11/27 20:51:53;;;;;;;34.47;32.30;;;;;;;2.01;100.00;100729.00;5055609;28;20062;-81
2023/11/27 20:54:22;;;;;;;30.80;28.90;;;;;;;2.02;100.00;100736.69;5065400;28;20131;-81
2023/11/27 20:56:50;;;;;;;31.38;29.50;;;;;;;2.02;100.00;100730.63;5067988;28;20410;-81
2023/11/27 20:59:19;;;;;;;28.85;26.95;;;;;;;2.13;100.00;100733.03;5058564;28;20044;-80
2023/11/27 21:01:47;;;;;;;28.20;26.50;;;;;;;2.14;100.00;100724.19;5059335;28;20052;-81
2023/11/27 21:04:14;;;;;;;27.17;25.58;;;;;;;2.01;100.00;100723.75;5055145;28;20052;-80
2023/11/27 21:06:41;;;;;;;27.67;25.98;;;;;;;2.20;100.00;100726.22;5057809;28;20068;-80
2023/11/27 21:09:13;;;;;;;26.90;25.20;;;;;;;2.38;100.00;100710.47;5062208;28;20433;-80
2023/11/27 21:11:43;;;;;;;29.67;27.77;;;;;;;2.31;100.00;100719.94;5064690;28;20052;-81
2023/11/27 21:14:24;;;;;;;25.45;23.85;;;;;;;2.51;100.00;100715.31;5064337;28;20045;-81
2023/11/27 21:16:57;;;;;;;24.08;22.50;;;;;;;2.59;100.00;100717.16;5060359;28;20139;-81
2023/11/27 21:19:30;;;;;;;31.40;29.70;;;;;;;2.49;100.00;100709.41;5060454;28;20047;-81
2023/11/27 21:21:58;;;;;;;28.60;26.90;;;;;;;2.43;100.00;100705.59;5068382;28;20056;-80
2023/11/27 21:24:26;;;;;;;41.08;38.78;;;;;;;2.50;100.00;100711.03;5064390;28;20048;-81
2023/11/27 21:27:09;;;;;;;30.25;28.45;;;;;;;2.55;100.00;100705.34;5058384;28;20524;-81
2023/11/27 21:29:37;;;;;;;;;;;;;;;2.59;100.00;100702.25;5063536;28;20060;-80
2023/11/27 21:32:05;;;;;;;38.50;36.03;;;;;;;2.65;100.00;100706.06;5066231;28;19921;-81
2023/11/27 21:34:32;;;;;;;31.30;29.50;;;;;;;2.72;100.00;100713.19;5067881;28;20679;-80
2023/11/27 21:36:59;;;;;;;31.80;29.88;;;;;;;2.59;100.00;100711.94;5059620;28;20057;-81
2023/11/27 21:39:26;;;;;;;33.80;31.88;;;;;;;2.74;100.00;100715.63;5065976;28;20498;-81
2023/11/27 21:41:53;;;;;;;31.10;29.10;;;;;;;2.84;100.00;100718.13;5063399;28;20406;-81
2023/11/27 21:44:20;;;;;;;28.65;26.85;;;;;;;2.84;100.00;100718.13;5062513;28;20084;-81
2023/11/27 21:46:48;;;;;;;33.80;31.70;;;;;;;2.85;100.00;100712.75;5068820;28;20052;-81
2023/11/27 21:49:17;;;;;;;33.85;31.85;;;;;;;2.74;100.00;100718.25;5067298;28;20052;-81
2023/11/27 21:51:44;;;;;;;35.65;33.13;;;;;;;2.27;100.00;100705.50;5050463;28;20045;-80
2023/11/27 21:54:12;;;;;;;33.05;30.92;;;;;;;1.88;100.00;100705.81;5064159;28;20125;-80
2023/11/27 21:56:43;;;;;;;29.05;27.25;;;;;;;1.75;100.00;100698.28;5068438;28;20052;-80
2023/11/27 21:59:10;;;;;;;37.65;35.45;;;;;;;1.72;100.00;100697.78;5056788;28;20045;-80
2023/11/27 22:01:41;;;;;;;39.15;36.75;;;;;;;1.32;100.00;100691.13;5069467;28;20044;-80
2023/11/27 22:04:09;;;;;;;30.45;28.52;;;;;;;1.34;100.00;100687.41;5063810;28;20048;-80
2023/11/27 22:06:38;;;;;;;27.48;25.98;;;;;;;1.31;100.00;100689.50;5058676;28;20402;-81
2023/11/27 22:09:06;;;;;;;30.73;28.83;;;;;;;1.24;100.00;100697.13;5062088;28;20051;-77
2023/11/27 22:11:33;;;;;;;32.33;30.42;;;;;;;1.39;100.00;100702.66;5072021;28;20051;-77
2023/11/27 22:14:01;;;;;;;30.55;28.75;;;;;;;1.29;100.00;100692.25;5063835;28;20641;-80
2023/11/27 22:16:28;;;;;;;27.58;25.98;;;;;;;1.35;100.00;100678.59;5064038;28;20049;-77
2023/11/27 22:18:55;;;;;;;27.02;25.50;;;;;;;1.56;100.00;100680.13;5065694;28;20049;-77
2023/11/27 22:21:33;;;;;;;28.45;26.75;;;;;;;1.68;100.00;100686.78;5061750;28;20048;-80
2023/11/27 22:24:05;;;;;;;28.92;27.13;;;;;;;1.63;100.00;100690.81;5069950;28;20049;-80
2023/11/27 22:26:32;;;;;;;30.73;28.88;;;;;;;1.69;100.00;100684.97;5069056;28;20153;-80
2023/11/27 22:28:59;;;;;;;31.25;29.35;;;;;;;1.66;100.00;100678.25;5058689;28;20135;-79
2023/11/27 22:31:26;;;;;;;29.92;28.10;;;;;;;1.59;100.00;100667.53;5060496;28;20692;-80
2023/11/27 22:34:02;;;;;;;30.48;28.58;;;;;;;1.66;100.00;100678.25;5068734;28;20072;-81
2023/11/27 22:36:30;;;;;;;31.15;29.25;;;;;;;1.50;100.00;100665.81;5060785;28;20052;-81
2023/11/27 22:38:57;;;;;;;35.75;33.55;;;;;;;1.59;100.00;100661.50;5065094;28;20131;-77
2023/11/27 22:41:25;;;;;;;48.22;45.42;;;;;;;1.48;100.00;100656.47;5058448;28;20059;-77
2023/11/27 22:43:51;;;;;;;48.28;45.55;;;;;;;1.60;100.00;100658.75;5048753;28;20052;-77
2023/11/27 22:46:19;;;;;;;45.65;43.05;;;;;;;1.65;100.00;100654.84;5055269;28;20128;-77
2023/11/27 22:48:48;;;;;;;49.55;46.72;;;;;;;1.62;100.00;100642.03;5065233;28;20044;-81
2023/11/27 22:51:15;;;;;;;44.60;41.95;;;;;;;1.59;100.00;100636.13;5070087;28;20064;-77
2023/11/27 22:53:44;;;;;;;43.30;40.92;;;;;;;1.73;100.00;100631.34;5062827;28;20048;-80
2023/11/27 22:56:18;;;;;;;40.45;38.33;;;;;;;1.67;100.00;100631.97;5060642;28;20106;-77
2023/11/27 22:58:45;;;;;;;42.40;39.30;;;;;;;1.72;100.00;100632.31;5054848;28;20051;-80
2023/11/27 23:01:13;;;;;;;47.65;44.72;;;;;;;1.67;100.00;100603.97;5055771;28;20051;-81
2023/11/27 23:03:40;;;;;;;44.80;42.28;;;;;;;1.66;100.00;100625.06;5071828;28;20397;-80
2023/11/27 23:06:10;;;;;;;42.55;39.85;;;;;;;1.73;100.00;100633.97;5081027;28;20051;-80
2023/11/27 23:08:38;;;;;;;43.40;40.85;;;;;;;1.65;100.00;100624.22;5070439;28;20049;-77